Flyingdolphin Xviii — SV9700 — position and weather

sailwx.info

Track history (hours):
 
Tides and Currents Weather Stations Pressure Air Temp Water Temp Dewpoint Dewpoint Depression Visibility Wind Speed Wind Dir Waves Ship Positions

Flyingdolphin Xviii

Last reported at 2017-Nov-19 14:44 UTC. Time now 2017-Nov-20 17:27 UTC.
Position N 37°57' E 023°39'.

Length 36 m; draft 4 m.

Type: Ship. MMSI: 237023700.

Date/timePositionNaut miles runAvg speedWind from/ knotsBaromVisibWave heightAir tempDewpointWater temp
2017-Nov-19 14:44N 37°57' E 023°39'315.5
2017-Nov-19 14:31N 37°55' E 023°35'1317.8
2017-Nov-19 13:47N 37°45' E 023°26'828.2
2017-Nov-19 13:30N 37°52' E 023°30'812.8
2017-Nov-19 12:52N 37°57' E 023°38'1026.9
2017-Nov-19 12:30N 37°51' E 023°28'916.9
2017-Nov-19 12:00N 37°44' E 023°22'3 5.0
2017-Nov-19 11:29N 37°45' E 023°25'1430.4
2017-Nov-19 11:01N 37°56' E 023°36'3 6.5
2017-Nov-19 10:30N 37°54' E 023°33'1113.5
2017-Nov-19 09:40N 37°45' E 023°26'320.9
2017-Nov-19 09:30N 37°48' E 023°27'1217.4
2017-Nov-19 08:48N 37°57' E 023°38'825.7
2017-Nov-19 08:30N 37°51' E 023°32'1119.7
2017-Nov-19 07:56N 37°43' E 023°21'4 8.4
2017-Nov-19 07:30N 37°45' E 023°26'1428.0
2017-Nov-19 07:01N 37°55' E 023°36'2 0.1
2017-Nov-18 14:39N 37°57' E 023°38'319.3
2017-Nov-18 14:31N 37°55' E 023°35'1317.1
2017-Nov-18 13:45N 37°45' E 023°26'522.3
2017-Nov-18 13:30N 37°50' E 023°28'1115.2
2017-Nov-18 12:49N 37°57' E 023°38'825.0
2017-Nov-18 12:30N 37°52' E 023°30'1019.9
2017-Nov-18 12:00N 37°44' E 023°23'2 3.3
2017-Nov-18 11:30N 37°45' E 023°25'1530.2
2017-Nov-18 11:00N 37°56' E 023°37'2 3.2
2017-Nov-18 10:31N 37°56' E 023°35'1415.7
2017-Nov-18 09:38N 37°45' E 023°25'429.0
2017-Nov-18 09:30N 37°48' E 023°27'1318.6
2017-Nov-18 08:50N 37°57' E 023°38'926.6
2017-Nov-18 08:30N 37°50' E 023°31'917.3
2017-Nov-18 08:00N 37°44' E 023°23'2 3.8
2017-Nov-18 07:30N 37°45' E 023°25'1531.2
2017-Nov-18 07:00N 37°56' E 023°37'1 0.0
2017-Nov-17 14:40N 37°57' E 023°38'319.8
2017-Nov-17 14:31N 37°55' E 023°35'1315.2
2017-Nov-17 13:39N 37°45' E 023°25'531.1
2017-Nov-17 13:30N 37°49' E 023°28'1115.9
2017-Nov-17 12:48N 37°56' E 023°38'826.6
2017-Nov-17 12:31N 37°52' E 023°30'1018.3
2017-Nov-17 11:59N 37°44' E 023°24'1 2.6
2017-Nov-17 11:27N 37°45' E 023°25'1431.7
2017-Nov-17 11:01N 37°56' E 023°36'1 2.7
2017-Nov-17 10:31N 37°55' E 023°35'1324.8
2017-Nov-17 10:00N 37°45' E 023°26'4 9.1
2017-Nov-17 09:30N 37°49' E 023°28'1223.3
2017-Nov-17 09:00N 37°57' E 023°39'816.3
2017-Nov-17 08:30N 37°52' E 023°30'918.4
2017-Nov-17 08:00N 37°44' E 023°24'1 2.1
2017-Nov-17 07:30N 37°45' E 023°26'1428.4
2017-Nov-17 07:01N 37°56' E 023°36'1 1.8
2017-Nov-17 06:30N 37°55' E 023°36'1316.2
2017-Nov-17 05:42N 37°45' E 023°26'422.5
2017-Nov-17 05:31N 37°49' E 023°26'1325.0
2017-Nov-17 05:00N 37°57' E 023°39'0 0.0
2017-Nov-16 13:50N 37°57' E 023°39'720.2
2017-Nov-16 13:31N 37°54' E 023°31'1121.7
2017-Nov-16 13:01N 37°44' E 023°24'1 1.7
2017-Nov-16 12:27N 37°45' E 023°25'1123.8
2017-Nov-16 12:01N 37°54' E 023°32'612.0
2017-Nov-16 11:30N 37°57' E 023°39'3 6.8
2017-Nov-16 11:01N 37°55' E 023°35'816.1
2017-Nov-16 10:31N 37°50' E 023°27'5 9.8
2017-Nov-16 10:00N 37°45' E 023°25'612.9
2017-Nov-16 09:31N 37°51' E 023°29'1019.5
2017-Nov-16 09:00N 37°57' E 023°39'0 0.0
2017-Nov-15 12:39N 37°57' E 023°39'0 0.0
2017-Nov-15 12:30N 37°57' E 023°39'0 0.0
2017-Nov-15 12:00N 37°57' E 023°39'0 0.0
2017-Nov-15 11:30N 37°57' E 023°39'3 6.4
2017-Nov-15 11:01N 37°56' E 023°35'1318.8
2017-Nov-15 10:18N 37°45' E 023°25'621.0
2017-Nov-15 10:00N 37°51' E 023°27'510.9
2017-Nov-15 09:30N 37°54' E 023°32'611.3
2017-Nov-15 09:00N 37°57' E 023°39'815.6
2017-Nov-15 08:30N 37°53' E 023°30'1019.5
2017-Nov-15 08:00N 37°44' E 023°24'1 2.9
2017-Nov-15 07:30N 37°45' E 023°25'1429.4
2017-Nov-15 07:01N 37°56' E 023°36'1 2.4
2017-Nov-15 06:31N 37°56' E 023°35'1316.0
2017-Nov-15 05:41N 37°45' E 023°26'525.9
2017-Nov-15 05:31N 37°49' E 023°26'1224.3
2017-Nov-15 05:00N 37°57' E 023°39'0 0.1
2017-Nov-15 04:30N 37°57' E 023°39'0 0.0
2017-Nov-14 11:15N 37°57' E 023°39'0 0.0
2017-Nov-14 11:00N 37°57' E 023°39'2 4.9
2017-Nov-14 10:31N 37°55' E 023°36'1326.5
2017-Nov-14 10:00N 37°45' E 023°26'4 7.9
2017-Nov-14 09:31N 37°48' E 023°28'1223.8
2017-Nov-14 09:01N 37°57' E 023°39'815.7
2017-Nov-14 08:31N 37°51' E 023°32'1121.2
2017-Nov-14 08:00N 37°44' E 023°22'3 6.2
2017-Nov-14 07:31N 37°46' E 023°25'1529.7
2017-Nov-14 07:00N 37°56' E 023°38'2 4.2
2017-Nov-14 06:31N 37°55' E 023°36'1315.3
2017-Nov-14 05:39N 37°45' E 023°26'320.7
2017-Nov-14 05:30N 37°47' E 023°27'1326.1
2017-Nov-14 05:00N 37°57' E 023°39'0 0.1
2017-Nov-14 04:30N 37°57' E 023°39'0 0.0
2017-Nov-12 14:55N 37°57' E 023°39'410.8
2017-Nov-12 14:31N 37°55' E 023°34'1215.4
2017-Nov-12 13:44N 37°45' E 023°26'625.2
2017-Nov-12 13:31N 37°50' E 023°28'1121.4
2017-Nov-12 13:00N 37°57' E 023°39'918.3
2017-Nov-12 12:31N 37°52' E 023°29'918.6
2017-Nov-12 12:00N 37°44' E 023°22'3 5.7
2017-Nov-12 11:31N 37°46' E 023°25'1428.9
2017-Nov-12 11:00N 37°56' E 023°38'3 6.7
2017-Nov-12 10:31N 37°55' E 023°34'1216.0
2017-Nov-12 09:45N 37°45' E 023°26'626.1
2017-Nov-12 09:31N 37°51' E 023°28'1020.0
2017-Nov-12 09:00N 37°57' E 023°39'1019.2
2017-Nov-12 08:31N 37°51' E 023°29'917.9
2017-Nov-12 08:00N 37°44' E 023°22'3 5.0
2017-Nov-12 07:31N 37°45' E 023°24'1529.5
2017-Nov-12 07:00N 37°56' E 023°37'1 0.1
2017-Nov-11 14:50N 37°57' E 023°39'3 9.3
2017-Nov-11 14:31N 37°56' E 023°35'1316.9
2017-Nov-11 13:44N 37°45' E 023°26'625.7
2017-Nov-11 13:31N 37°49' E 023°30'1020.3
2017-Nov-11 13:00N 37°57' E 023°39'918.2
2017-Nov-11 12:31N 37°50' E 023°31'917.6
2017-Nov-11 12:01N 37°44' E 023°23'2 4.4
2017-Nov-11 11:31N 37°46' E 023°25'1529.9
2017-Nov-11 11:00N 37°56' E 023°38'2 3.8
2017-Nov-11 10:31N 37°55' E 023°36'1316.9
2017-Nov-11 09:43N 37°45' E 023°26'522.4
2017-Nov-11 09:31N 37°49' E 023°29'1122.0
2017-Nov-11 09:01N 37°57' E 023°39'815.5
2017-Nov-11 08:31N 37°51' E 023°32'1020.9
2017-Nov-11 08:00N 37°44' E 023°22'2 4.3
2017-Nov-11 07:30N 37°45' E 023°25'1529.9
2017-Nov-11 07:01N 37°56' E 023°37'2 0.1
2017-Nov-10 14:43N 37°57' E 023°39'315.6
2017-Nov-10 14:31N 37°55' E 023°35'1325.0
2017-Nov-10 14:00N 37°45' E 023°26'611.3
2017-Nov-10 13:31N 37°49' E 023°30'1020.3
2017-Nov-10 13:00N 37°57' E 023°39'815.4
2017-Nov-10 12:31N 37°51' E 023°32'917.5
2017-Nov-10 12:00N 37°44' E 023°25'1 1.3
2017-Nov-10 11:30N 37°45' E 023°26'1427.5
2017-Nov-10 11:01N 37°55' E 023°36'0 0.8
2017-Nov-10 10:31N 37°55' E 023°36'1316.7
2017-Nov-10 09:43N 37°45' E 023°26'524.4
2017-Nov-10 09:31N 37°49' E 023°29'1121.7
2017-Nov-10 09:00N 37°57' E 023°39'816.9
2017-Nov-10 08:31N 37°50' E 023°31'1019.4
2017-Nov-10 08:01N 37°44' E 023°22'2 4.7
2017-Nov-10 07:30N 37°45' E 023°25'1529.8
2017-Nov-10 07:00N 37°56' E 023°38'2 4.0
2017-Nov-10 06:31N 37°55' E 023°36'1315.1
2017-Nov-10 05:38N 37°45' E 023°25'324.5
2017-Nov-10 05:31N 37°47' E 023°27'1325.9
2017-Nov-10 05:00N 37°57' E 023°39'0 0.0
2017-Nov-09 15:04N 37°57' E 023°39'0 0.0
2017-Nov-09 15:00N 37°57' E 023°39'  
Track history (hours):
 
Tides and Currents Weather Stations Pressure Air Temp Water Temp Dewpoint Dewpoint Depression Visibility Wind Speed Wind Dir Waves Ship Positions

Flyingdolphin Xviii

Last reported at 2017-Nov-19 14:44 UTC. Time now 2017-Nov-20 17:27 UTC.
Position N 37°57' E 023°39'.

Length 36 m; draft 4 m.

Type: Ship. MMSI: 237023700.

Date/timePositionNaut miles runAvg speedWind from/ knotsBaromVisibWave heightAir tempDewpointWater temp
2017-Nov-19 14:44N 37°57' E 023°39'315.5
2017-Nov-19 14:31N 37°55' E 023°35'1317.8
2017-Nov-19 13:47N 37°45' E 023°26'828.2
2017-Nov-19 13:30N 37°52' E 023°30'812.8
2017-Nov-19 12:52N 37°57' E 023°38'1026.9
2017-Nov-19 12:30N 37°51' E 023°28'916.9
2017-Nov-19 12:00N 37°44' E 023°22'3 5.0
2017-Nov-19 11:29N 37°45' E 023°25'1430.4
2017-Nov-19 11:01N 37°56' E 023°36'3 6.5
2017-Nov-19 10:30N 37°54' E 023°33'1113.5
2017-Nov-19 09:40N 37°45' E 023°26'320.9
2017-Nov-19 09:30N 37°48' E 023°27'1217.4
2017-Nov-19 08:48N 37°57' E 023°38'825.7
2017-Nov-19 08:30N 37°51' E 023°32'1119.7
2017-Nov-19 07:56N 37°43' E 023°21'4 8.4
2017-Nov-19 07:30N 37°45' E 023°26'1428.0
2017-Nov-19 07:01N 37°55' E 023°36'2 0.1
2017-Nov-18 14:39N 37°57' E 023°38'319.3
2017-Nov-18 14:31N 37°55' E 023°35'1317.1
2017-Nov-18 13:45N 37°45' E 023°26'522.3
2017-Nov-18 13:30N 37°50' E 023°28'1115.2
2017-Nov-18 12:49N 37°57' E 023°38'825.0
2017-Nov-18 12:30N 37°52' E 023°30'1019.9
2017-Nov-18 12:00N 37°44' E 023°23'2 3.3
2017-Nov-18 11:30N 37°45' E 023°25'1530.2
2017-Nov-18 11:00N 37°56' E 023°37'2 3.2
2017-Nov-18 10:31N 37°56' E 023°35'1415.7
2017-Nov-18 09:38N 37°45' E 023°25'429.0
2017-Nov-18 09:30N 37°48' E 023°27'1318.6
2017-Nov-18 08:50N 37°57' E 023°38'926.6
2017-Nov-18 08:30N 37°50' E 023°31'917.3
2017-Nov-18 08:00N 37°44' E 023°23'2 3.8
2017-Nov-18 07:30N 37°45' E 023°25'1531.2
2017-Nov-18 07:00N 37°56' E 023°37'1 0.0
2017-Nov-17 14:40N 37°57' E 023°38'319.8
2017-Nov-17 14:31N 37°55' E 023°35'1315.2
2017-Nov-17 13:39N 37°45' E 023°25'531.1
2017-Nov-17 13:30N 37°49' E 023°28'1115.9
2017-Nov-17 12:48N 37°56' E 023°38'826.6
2017-Nov-17 12:31N 37°52' E 023°30'1018.3
2017-Nov-17 11:59N 37°44' E 023°24'1 2.6
2017-Nov-17 11:27N 37°45' E 023°25'1431.7
2017-Nov-17 11:01N 37°56' E 023°36'1 2.7
2017-Nov-17 10:31N 37°55' E 023°35'1324.8
2017-Nov-17 10:00N 37°45' E 023°26'4 9.1
2017-Nov-17 09:30N 37°49' E 023°28'1223.3
2017-Nov-17 09:00N 37°57' E 023°39'816.3
2017-Nov-17 08:30N 37°52' E 023°30'918.4
2017-Nov-17 08:00N 37°44' E 023°24'1 2.1
2017-Nov-17 07:30N 37°45' E 023°26'1428.4
2017-Nov-17 07:01N 37°56' E 023°36'1 1.8
2017-Nov-17 06:30N 37°55' E 023°36'1316.2
2017-Nov-17 05:42N 37°45' E 023°26'422.5
2017-Nov-17 05:31N 37°49' E 023°26'1325.0
2017-Nov-17 05:00N 37°57' E 023°39'0 0.0
2017-Nov-16 13:50N 37°57' E 023°39'720.2
2017-Nov-16 13:31N 37°54' E 023°31'1121.7
2017-Nov-16 13:01N 37°44' E 023°24'1 1.7
2017-Nov-16 12:27N 37°45' E 023°25'1123.8
2017-Nov-16 12:01N 37°54' E 023°32'612.0
2017-Nov-16 11:30N 37°57' E 023°39'3 6.8
2017-Nov-16 11:01N 37°55' E 023°35'816.1
2017-Nov-16 10:31N 37°50' E 023°27'5 9.8
2017-Nov-16 10:00N 37°45' E 023°25'612.9
2017-Nov-16 09:31N 37°51' E 023°29'1019.5
2017-Nov-16 09:00N 37°57' E 023°39'0 0.0
2017-Nov-15 12:39N 37°57' E 023°39'0 0.0
2017-Nov-15 12:30N 37°57' E 023°39'0 0.0
2017-Nov-15 12:00N 37°57' E 023°39'0 0.0
2017-Nov-15 11:30N 37°57' E 023°39'3 6.4
2017-Nov-15 11:01N 37°56' E 023°35'1318.8
2017-Nov-15 10:18N 37°45' E 023°25'621.0
2017-Nov-15 10:00N 37°51' E 023°27'510.9
2017-Nov-15 09:30N 37°54' E 023°32'611.3
2017-Nov-15 09:00N 37°57' E 023°39'815.6
2017-Nov-15 08:30N 37°53' E 023°30'1019.5
2017-Nov-15 08:00N 37°44' E 023°24'1 2.9
2017-Nov-15 07:30N 37°45' E 023°25'1429.4
2017-Nov-15 07:01N 37°56' E 023°36'1 2.4
2017-Nov-15 06:31N 37°56' E 023°35'1316.0
2017-Nov-15 05:41N 37°45' E 023°26'525.9
2017-Nov-15 05:31N 37°49' E 023°26'1224.3
2017-Nov-15 05:00N 37°57' E 023°39'0 0.1
2017-Nov-15 04:30N 37°57' E 023°39'0 0.0
2017-Nov-14 11:15N 37°57' E 023°39'0 0.0
2017-Nov-14 11:00N 37°57' E 023°39'2 4.9
2017-Nov-14 10:31N 37°55' E 023°36'1326.5
2017-Nov-14 10:00N 37°45' E 023°26'4 7.9
2017-Nov-14 09:31N 37°48' E 023°28'1223.8
2017-Nov-14 09:01N 37°57' E 023°39'815.7
2017-Nov-14 08:31N 37°51' E 023°32'1121.2
2017-Nov-14 08:00N 37°44' E 023°22'3 6.2
2017-Nov-14 07:31N 37°46' E 023°25'1529.7
2017-Nov-14 07:00N 37°56' E 023°38'2 4.2
2017-Nov-14 06:31N 37°55' E 023°36'1315.3
2017-Nov-14 05:39N 37°45' E 023°26'320.7
2017-Nov-14 05:30N 37°47' E 023°27'1326.1
2017-Nov-14 05:00N 37°57' E 023°39'0 0.1
2017-Nov-14 04:30N 37°57' E 023°39'0 0.0
2017-Nov-12 14:55N 37°57' E 023°39'410.8
2017-Nov-12 14:31N 37°55' E 023°34'1215.4
2017-Nov-12 13:44N 37°45' E 023°26'625.2
2017-Nov-12 13:31N 37°50' E 023°28'1121.4
2017-Nov-12 13:00N 37°57' E 023°39'918.3
2017-Nov-12 12:31N 37°52' E 023°29'918.6
2017-Nov-12 12:00N 37°44' E 023°22'3 5.7
2017-Nov-12 11:31N 37°46' E 023°25'1428.9
2017-Nov-12 11:00N 37°56' E 023°38'3 6.7
2017-Nov-12 10:31N 37°55' E 023°34'1216.0
2017-Nov-12 09:45N 37°45' E 023°26'626.1
2017-Nov-12 09:31N 37°51' E 023°28'1020.0
2017-Nov-12 09:00N 37°57' E 023°39'1019.2
2017-Nov-12 08:31N 37°51' E 023°29'917.9
2017-Nov-12 08:00N 37°44' E 023°22'3 5.0
2017-Nov-12 07:31N 37°45' E 023°24'1529.5
2017-Nov-12 07:00N 37°56' E 023°37'1 0.1
2017-Nov-11 14:50N 37°57' E 023°39'3 9.3
2017-Nov-11 14:31N 37°56' E 023°35'1316.9
2017-Nov-11 13:44N 37°45' E 023°26'625.7
2017-Nov-11 13:31N 37°49' E 023°30'1020.3
2017-Nov-11 13:00N 37°57' E 023°39'918.2
2017-Nov-11 12:31N 37°50' E 023°31'917.6
2017-Nov-11 12:01N 37°44' E 023°23'2 4.4
2017-Nov-11 11:31N 37°46' E 023°25'1529.9
2017-Nov-11 11:00N 37°56' E 023°38'2 3.8
2017-Nov-11 10:31N 37°55' E 023°36'1316.9
2017-Nov-11 09:43N 37°45' E 023°26'522.4
2017-Nov-11 09:31N 37°49' E 023°29'1122.0
2017-Nov-11 09:01N 37°57' E 023°39'815.5
2017-Nov-11 08:31N 37°51' E 023°32'1020.9
2017-Nov-11 08:00N 37°44' E 023°22'2 4.3
2017-Nov-11 07:30N 37°45' E 023°25'1529.9
2017-Nov-11 07:01N 37°56' E 023°37'2 0.1
2017-Nov-10 14:43N 37°57' E 023°39'315.6
2017-Nov-10 14:31N 37°55' E 023°35'1325.0
2017-Nov-10 14:00N 37°45' E 023°26'611.3
2017-Nov-10 13:31N 37°49' E 023°30'1020.3
2017-Nov-10 13:00N 37°57' E 023°39'815.4
2017-Nov-10 12:31N 37°51' E 023°32'917.5
2017-Nov-10 12:00N 37°44' E 023°25'1 1.3
2017-Nov-10 11:30N 37°45' E 023°26'1427.5
2017-Nov-10 11:01N 37°55' E 023°36'0 0.8
2017-Nov-10 10:31N 37°55' E 023°36'1316.7
2017-Nov-10 09:43N 37°45' E 023°26'524.4
2017-Nov-10 09:31N 37°49' E 023°29'1121.7
2017-Nov-10 09:00N 37°57' E 023°39'816.9
2017-Nov-10 08:31N 37°50' E 023°31'1019.4
2017-Nov-10 08:01N 37°44' E 023°22'2 4.7
2017-Nov-10 07:30N 37°45' E 023°25'1529.8
2017-Nov-10 07:00N 37°56' E 023°38'2 4.0
2017-Nov-10 06:31N 37°55' E 023°36'1315.1
2017-Nov-10 05:38N 37°45' E 023°25'324.5
2017-Nov-10 05:31N 37°47' E 023°27'1325.9
2017-Nov-10 05:00N 37°57' E 023°39'0 0.0
2017-Nov-09 15:04N 37°57' E 023°39'0 0.0
2017-Nov-09 15:00N 37°57' E 023°39'  

Dump ship's entire track history